Time;durP1;ratioP1;P1;durP2;ratioP2;P2;SDS_P1;SDS_P2;PMS_P1;PMS_P2;Temp;Humidity;BMP_temperature;BMP_pressure;BME280_temperature;BME280_humidity;BME280_pressure;Samples;Min_cycle;Max_cycle;Signal;HPM_P1;HPM_P2
2022/04/25 00:01:34;;;;;;;0.10;0.10;;;;;;;16.11;59.23;98252.63;4858819;29;20454;-74
2022/04/25 00:04:00;;;;;;;0.10;0.10;;;;;;;16.13;59.20;98265.75;4859010;29;20443;-74
2022/04/25 00:06:25;;;;;;;0.10;0.10;;;;;;;16.10;58.76;98264.50;4858687;29;20029;-74
2022/04/25 00:08:51;;;;;;;0.10;0.10;;;;;;;16.05;59.29;98253.94;4859165;29;20076;-74
2022/04/25 00:11:16;;;;;;;0.10;0.10;;;;;;;16.04;59.13;98251.56;4858879;29;20413;-74
2022/04/25 00:13:42;;;;;;;1.02;1.02;;;;;;;16.02;59.29;98259.97;4858700;29;20034;-74
2022/04/25 00:16:07;;;;;;;0.10;0.10;;;;;;;16.00;58.87;98256.81;4858588;29;20038;-74
2022/04/25 00:18:33;;;;;;;0.00;0.00;;;;;;;16.00;59.46;98251.44;4858735;29;20120;-73
2022/04/25 00:21:00;;;;;;;0.45;0.45;;;;;;;16.00;59.32;98262.22;4862611;29;20034;-73
2022/04/25 00:23:25;;;;;;;0.10;0.10;;;;;;;16.01;59.12;98253.00;4862390;29;20029;-73
2022/04/25 00:25:51;;;;;;;0.10;0.10;;;;;;;15.98;59.12;98254.47;4862356;29;20033;-74
2022/04/25 00:28:16;;;;;;;0.10;0.10;;;;;;;15.92;59.22;98253.09;4861230;29;20406;-74
2022/04/25 00:30:42;;;;;;;0.08;0.08;;;;;;;15.86;59.48;98248.25;4862290;29;20033;-74
2022/04/25 00:33:07;;;;;;;0.03;0.03;;;;;;;15.87;59.74;98256.00;4862242;29;20030;-74
2022/04/25 00:35:33;;;;;;;0.10;0.10;;;;;;;15.88;59.64;98265.66;4861990;29;20033;-74
2022/04/25 00:37:58;;;;;;;0.00;0.00;;;;;;;15.84;59.78;98253.94;4862430;29;20029;-74
2022/04/25 00:40:25;;;;;;;0.10;0.10;;;;;;;15.86;59.85;98259.03;4862130;29;20033;-74
2022/04/25 00:42:51;;;;;;;0.08;0.08;;;;;;;15.84;60.00;98249.34;4862342;29;20447;-73
2022/04/25 00:45:17;;;;;;;0.10;0.10;;;;;;;15.83;60.03;98252.38;4862569;29;20040;-74
2022/04/25 00:47:44;;;;;;;0.10;0.10;;;;;;;15.84;60.00;98252.06;4861963;29;20040;-74
2022/04/25 00:50:10;;;;;;;0.10;0.10;;;;;;;15.79;59.90;98246.81;4861953;29;20493;-74
2022/04/25 00:52:37;;;;;;;0.10;0.10;;;;;;;15.79;60.06;98246.81;4862006;29;20138;-74
2022/04/25 00:55:08;;;;;;;0.00;0.00;;;;;;;15.73;60.26;98244.66;4862163;29;20025;-74
2022/04/25 00:57:35;;;;;;;0.15;0.15;;;;;;;15.65;60.52;98243.63;4845303;29;20417;-73
2022/04/25 01:00:05;;;;;;;0.10;0.10;;;;;;;15.66;60.91;98245.19;4861730;29;20405;-73
2022/04/25 01:02:30;;;;;;;0.08;0.08;;;;;;;15.58;61.28;98241.44;4861814;29;20033;-74
2022/04/25 01:04:56;;;;;;;0.10;0.10;;;;;;;15.52;61.09;98243.53;4862299;29;20045;-74
2022/04/25 01:07:21;;;;;;;0.10;0.10;;;;;;;15.52;61.32;98248.16;4861832;29;20044;-73
2022/04/25 01:09:47;;;;;;;0.10;0.10;;;;;;;15.43;61.50;98242.00;4861681;29;20025;-73
2022/04/25 01:12:13;;;;;;;0.00;0.00;;;;;;;15.42;61.83;98245.84;4861794;29;20033;-74
2022/04/25 01:14:38;;;;;;;0.10;0.10;;;;;;;15.34;61.80;98242.88;4861574;29;20034;-73
2022/04/25 01:17:04;;;;;;;0.10;0.10;;;;;;;15.30;62.16;98250.03;4861826;29;20094;-74
2022/04/25 01:19:29;;;;;;;0.10;0.10;;;;;;;15.31;62.02;98253.53;4844613;29;20033;-73
2022/04/25 01:22:17;;;;;;;0.10;0.10;;;;;;;15.30;62.19;98257.34;4861831;29;20032;-74
2022/04/25 01:27:26;;;;;;;0.10;0.10;;;;;;;15.19;62.78;98246.91;4861062;29;20517;-73
2022/04/25 01:29:53;;;;;;;0.10;0.10;;;;;;;15.16;62.81;98244.91;4861598;29;20030;-73
2022/04/25 01:32:20;;;;;;;0.10;0.10;;;;;;;15.15;62.72;98245.22;4860881;29;20470;-73
2022/04/25 01:34:46;;;;;;;0.10;0.10;;;;;;;15.16;62.83;98252.97;4861490;29;20029;-73
2022/04/25 01:37:14;;;;;;;0.28;0.28;;;;;;;15.18;62.51;98256.13;4861147;29;20040;-73
2022/04/25 01:39:50;;;;;;;0.00;0.00;;;;;;;15.20;62.51;98255.81;4861204;29;20041;-73
2022/04/25 01:42:17;;;;;;;0.00;0.00;;;;;;;15.17;62.65;98248.38;4861368;29;20070;-73
2022/04/25 01:44:43;;;;;;;0.00;0.00;;;;;;;15.23;62.73;98255.13;4861007;29;20033;-73
2022/04/25 01:47:09;;;;;;;0.10;0.10;;;;;;;15.24;62.55;98248.63;4844468;29;20037;-73
2022/04/25 01:49:36;;;;;;;0.10;0.10;;;;;;;15.30;62.73;98236.56;4844371;29;20387;-73
2022/04/25 01:52:22;;;;;;;0.00;0.00;;;;;;;15.36;62.60;98240.63;4861208;29;20053;-73
2022/04/25 01:54:48;;;;;;;0.00;0.00;;;;;;;15.39;62.24;98238.41;4860953;29;20034;-73
2022/04/25 01:57:13;;;;;;;0.00;0.00;;;;;;;15.39;62.35;98239.19;4861053;29;20038;-73
2022/04/25 01:59:39;;;;;;;0.10;0.10;;;;;;;15.40;62.30;98235.38;4860814;29;20034;-73
2022/04/25 02:02:06;;;;;;;0.08;0.08;;;;;;;15.40;62.10;98234.59;4861009;29;20081;-73
2022/04/25 02:04:31;;;;;;;0.00;0.00;;;;;;;15.43;61.90;98234.75;4860727;29;20033;-73
2022/04/25 02:06:57;;;;;;;0.00;0.00;;;;;;;15.41;61.99;98233.50;4861047;29;20040;-74
2022/04/25 02:09:23;;;;;;;0.00;0.00;;;;;;;15.40;62.04;98235.38;4861130;29;20037;-73
2022/04/25 02:11:49;;;;;;;0.10;0.10;;;;;;;15.44;61.90;98241.72;4860300;29;20494;-73
2022/04/25 02:14:14;;;;;;;0.10;0.10;;;;;;;15.39;62.23;98247.28;4861000;29;20038;-73
2022/04/25 02:16:40;;;;;;;0.00;0.00;;;;;;;15.41;62.33;98241.56;4860221;29;20036;-74
2022/04/25 02:19:06;;;;;;;0.00;0.00;;;;;;;15.45;61.98;98242.50;4860670;29;20032;-73
2022/04/25 02:21:31;;;;;;;0.00;0.00;;;;;;;15.45;61.92;98239.78;4843794;29;20116;-73
2022/04/25 02:23:57;;;;;;;0.10;0.10;;;;;;;15.43;62.15;98242.00;4860602;29;20026;-73
2022/04/25 02:26:22;;;;;;;0.05;0.05;;;;;;;15.36;62.16;98243.31;4860164;29;20033;-73
2022/04/25 02:28:48;;;;;;;0.00;0.00;;;;;;;15.37;61.79;98244.13;4860311;29;20098;-73
2022/04/25 02:31:14;;;;;;;0.17;0.17;;;;;;;15.33;62.19;98240.50;4860468;29;20120;-73
2022/04/25 02:33:41;;;;;;;0.00;0.00;;;;;;;15.31;62.30;98251.59;4860267;29;20063;-73
2022/04/25 02:36:07;;;;;;;0.00;0.00;;;;;;;15.30;62.08;98250.03;4860357;29;20037;-73
2022/04/25 02:38:34;;;;;;;0.10;0.10;;;;;;;15.26;61.78;98249.13;4843484;29;20029;-74
2022/04/25 02:41:05;;;;;;;0.10;0.10;;;;;;;15.19;62.34;98241.53;4860371;29;20037;-73
2022/04/25 02:43:35;;;;;;;0.00;0.00;;;;;;;15.18;62.42;98242.66;4859091;29;20090;-74
2022/04/25 02:46:11;;;;;;;0.10;0.10;;;;;;;15.13;62.66;98240.16;4860467;29;20090;-73
2022/04/25 02:48:38;;;;;;;0.00;0.00;;;;;;;15.04;62.50;98242.88;4859846;29;20034;-73
2022/04/25 02:51:05;;;;;;;0.10;0.10;;;;;;;15.01;62.62;98235.47;4859947;29;20057;-74
2022/04/25 02:53:31;;;;;;;0.10;0.10;;;;;;;15.00;62.98;98235.78;4860151;29;20026;-73
2022/04/25 02:55:57;;;;;;;0.10;0.10;;;;;;;14.97;63.08;98236.44;4860027;29;20026;-73
2022/04/25 02:58:23;;;;;;;0.10;0.10;;;;;;;14.95;63.03;98241.34;4843404;29;20025;-73
2022/04/25 03:00:49;;;;;;;0.00;0.00;;;;;;;14.97;63.14;98231.06;4859740;29;20101;-74
2022/04/25 03:03:17;;;;;;;0.03;0.03;;;;;;;14.91;63.12;98243.13;4859915;29;20037;-74
2022/04/25 03:05:44;;;;;;;0.00;0.00;;;;;;;14.84;63.09;98240.94;4859647;29;20037;-73
2022/04/25 03:08:15;;;;;;;0.00;0.00;;;;;;;14.80;62.89;98248.09;4859722;29;20040;-73
2022/04/25 03:10:42;;;;;;;0.00;0.00;;;;;;;14.69;62.49;98251.13;4859581;29;20128;-73
2022/04/25 03:13:09;;;;;;;0.10;0.10;;;;;;;14.61;62.58;98256.50;4859747;29;20033;-73
2022/04/25 03:15:38;;;;;;;0.00;0.00;;;;;;;14.49;62.55;98251.78;4859425;29;20061;-73
2022/04/25 03:18:05;;;;;;;0.10;0.10;;;;;;;14.41;62.26;98256.91;4859684;29;20029;-73
2022/04/25 03:20:31;;;;;;;0.10;0.10;;;;;;;14.35;62.33;98254.69;4859838;29;20123;-73
2022/04/25 03:22:57;;;;;;;0.00;0.00;;;;;;;14.27;62.76;98250.09;4859490;29;20021;-74
2022/04/25 03:25:23;;;;;;;0.10;0.10;;;;;;;14.25;62.42;98253.91;4859469;29;20080;-73
2022/04/25 03:27:48;;;;;;;0.00;0.00;;;;;;;14.18;62.70;98253.59;4859184;29;20157;-73
2022/04/25 03:30:14;;;;;;;0.10;0.10;;;;;;;14.13;62.57;98247.63;4859214;29;20033;-73
2022/04/25 03:32:46;;;;;;;0.00;0.00;;;;;;;14.09;62.72;98260.91;4859237;29;20036;-73
2022/04/25 03:35:15;;;;;;;0.10;0.10;;;;;;;14.04;62.71;98259.16;4859387;29;20052;-73
2022/04/25 03:37:41;;;;;;;0.00;0.00;;;;;;;14.02;62.36;98269.44;4859114;29;20040;-73
2022/04/25 03:40:09;;;;;;;0.00;0.00;;;;;;;14.02;62.36;98263.28;4859336;29;20410;-74
2022/04/25 03:42:35;;;;;;;;;;;;;;;14.07;62.01;98279.25;4859494;29;20108;-73
2022/04/25 03:45:00;;;;;;;0.10;0.10;;;;;;;14.09;62.04;98267.06;4859201;29;19990;-73
2022/04/25 03:47:29;;;;;;;0.00;0.00;;;;;;;14.21;61.91;98271.03;4859126;29;20034;-74
2022/04/25 03:49:54;;;;;;;0.00;0.00;;;;;;;14.38;61.62;98268.28;4858967;29;20113;-73
2022/04/25 03:52:20;;;;;;;0.08;0.08;;;;;;;14.60;61.04;98266.50;4858772;29;20178;-73
2022/04/25 03:57:29;;;;;;;0.00;0.00;;;;;;;15.08;59.96;98266.50;4842387;29;20520;-73
2022/04/25 03:59:55;;;;;;;0.10;0.10;;;;;;;15.39;59.10;98268.81;4858766;29;20073;-74
2022/04/25 04:02:21;;;;;;;0.10;0.10;;;;;;;15.67;58.02;98268.31;4842385;29;20044;-73
2022/04/25 04:04:47;;;;;;;0.00;0.00;;;;;;;16.00;57.55;98275.69;4858726;29;20108;-74
2022/04/25 04:07:13;;;;;;;0.00;0.00;;;;;;;16.31;56.15;98277.19;4858862;29;20112;-73
2022/04/25 04:09:45;;;;;;;0.10;0.10;;;;;;;16.68;55.28;98274.53;4858740;29;20478;-74
2022/04/25 04:12:14;;;;;;;0.10;0.10;;;;;;;17.05;53.97;98277.31;4858600;29;20029;-74
2022/04/25 04:14:40;;;;;;;0.10;0.10;;;;;;;17.47;53.14;98278.16;4858700;29;20064;-74
2022/04/25 04:17:07;;;;;;;0.00;0.00;;;;;;;17.79;52.12;98283.75;4858823;29;20121;-74
2022/04/25 04:19:33;;;;;;;0.10;0.10;;;;;;;18.11;50.83;98283.88;4858845;29;20030;-74
2022/04/25 04:22:01;;;;;;;0.00;0.00;;;;;;;18.31;50.25;98293.72;4858469;29;20072;-74
2022/04/25 04:24:26;;;;;;;0.00;0.00;;;;;;;18.51;49.68;98291.13;4858536;29;20534;-74
2022/04/25 04:26:52;;;;;;;0.00;0.00;;;;;;;18.71;49.02;98287.41;4858690;29;20083;-74
2022/04/25 04:29:17;;;;;;;0.00;0.00;;;;;;;18.90;48.61;98285.91;4858785;29;20025;-74
2022/04/25 04:31:45;;;;;;;0.10;0.10;;;;;;;19.03;47.96;98289.34;4858521;29;20485;-74
2022/04/25 04:34:11;;;;;;;;;;;;;;;19.26;47.34;98277.84;4859236;29;20158;-74
2022/04/25 04:36:36;;;;;;;0.10;0.10;;;;;;;19.47;47.03;98281.06;4858451;29;20019;-74
2022/04/25 04:39:02;;;;;;;0.10;0.10;;;;;;;19.73;46.75;98282.38;4858653;29;20029;-74
2022/04/25 04:41:27;;;;;;;0.20;0.15;;;;;;;20.05;46.25;98284.19;4858611;29;20540;-74
2022/04/25 04:43:55;;;;;;;0.03;0.03;;;;;;;20.46;45.51;98292.72;4858403;29;20044;-74
2022/04/25 04:46:20;;;;;;;0.00;0.00;;;;;;;20.84;44.71;98288.34;4858263;29;20455;-74
2022/04/25 04:48:46;;;;;;;0.00;0.00;;;;;;;21.27;43.66;98293.66;4858385;29;20037;-73
2022/04/25 04:51:11;;;;;;;0.00;0.00;;;;;;;21.73;42.50;98288.09;4858464;29;20170;-72
2022/04/25 04:53:37;;;;;;;0.00;0.00;;;;;;;22.14;41.79;98287.44;4858503;29;20070;-72
2022/04/25 04:56:03;;;;;;;0.00;0.00;;;;;;;22.55;40.93;98292.16;4858486;29;20124;-72
2022/04/25 04:58:28;;;;;;;0.00;0.00;;;;;;;22.93;40.50;98287.41;4858525;29;20029;-72
2022/04/25 05:00:54;;;;;;;0.00;0.00;;;;;;;23.25;39.65;98275.97;4858002;29;20041;-74
2022/04/25 05:03:20;;;;;;;0.00;0.00;;;;;;;23.62;38.96;98285.16;4858473;29;20034;-72
2022/04/25 05:05:45;;;;;;;0.00;0.00;;;;;;;24.00;38.29;98283.03;4858711;29;20030;-74
2022/04/25 05:08:11;;;;;;;0.00;0.00;;;;;;;24.37;37.75;98262.81;4861670;29;20113;-72
2022/04/25 05:10:37;;;;;;;0.00;0.00;;;;;;;24.75;37.19;98271.47;4861916;29;20491;-76
2022/04/25 05:13:03;;;;;;;0.00;0.00;;;;;;;25.13;35.99;98264.81;4861607;29;20026;-74
2022/04/25 05:15:29;;;;;;;0.00;0.00;;;;;;;25.40;35.37;98259.69;4861800;29;20037;-74
2022/04/25 05:17:55;;;;;;;0.00;0.00;;;;;;;25.63;35.49;98267.44;4861519;29;20029;-74
2022/04/25 05:20:23;;;;;;;0.13;0.13;;;;;;;25.90;35.03;98266.94;4861682;29;20401;-74
2022/04/25 05:22:49;;;;;;;0.00;0.00;;;;;;;26.13;34.84;98271.94;4861374;29;20029;-74
2022/04/25 05:25:17;;;;;;;0.00;0.00;;;;;;;26.31;34.37;98271.84;4861650;29;20029;-74
2022/04/25 05:27:55;;;;;;;0.00;0.00;;;;;;;26.48;34.75;98280.38;4861259;29;20112;-74
2022/04/25 05:30:22;;;;;;;0.00;0.00;;;;;;;26.57;34.41;98271.69;4861277;29;20490;-74
2022/04/25 05:32:53;;;;;;;0.00;0.00;;;;;;;26.73;34.13;98271.94;4861006;29;20517;-74
2022/04/25 05:35:21;;;;;;;0.00;0.00;;;;;;;26.85;34.02;98267.97;4861418;29;20116;-74
2022/04/25 05:37:47;;;;;;;0.00;0.00;;;;;;;26.96;33.58;98267.88;4860849;29;20477;-74
2022/04/25 05:40:14;;;;;;;0.00;0.00;;;;;;;27.06;33.22;98261.53;4861326;29;20072;-74
2022/04/25 05:42:41;;;;;;;0.10;0.10;;;;;;;27.20;33.17;98254.34;4861344;29;20086;-73
2022/04/25 05:45:09;;;;;;;0.00;0.00;;;;;;;27.41;32.80;98253.34;4861263;29;20048;-74
2022/04/25 05:47:35;;;;;;;0.00;0.00;;;;;;;27.39;32.66;98261.19;4861176;29;20030;-74
2022/04/25 05:52:46;;;;;;;0.00;0.00;;;;;;;27.46;32.90;98250.16;4861017;29;20193;-74
2022/04/25 05:55:11;;;;;;;0.00;0.00;;;;;;;27.58;32.78;98235.88;4860688;29;20112;-74
2022/04/25 05:57:37;;;;;;;0.00;0.00;;;;;;;27.64;33.00;98238.97;4861265;29;20029;-74
2022/04/25 06:00:05;;;;;;;0.00;0.00;;;;;;;27.83;32.62;98245.00;4860540;29;20402;-74
2022/04/25 06:02:31;;;;;;;0.20;0.20;;;;;;;27.97;32.30;98242.06;4860331;29;20030;-74
2022/04/25 06:04:56;;;;;;;0.00;0.00;;;;;;;28.08;32.71;98239.22;4860828;29;20030;-74
2022/04/25 06:07:22;;;;;;;0.00;0.00;;;;;;;28.09;31.70;98227.78;4860164;29;20033;-74
2022/04/25 06:09:47;;;;;;;0.00;0.00;;;;;;;28.12;31.35;98220.69;4860053;29;20561;-74
2022/04/25 06:12:12;;;;;;;0.00;0.00;;;;;;;28.04;31.28;98227.44;4860177;29;20125;-74
2022/04/25 06:14:38;;;;;;;0.10;0.10;;;;;;;27.95;30.99;98214.22;4860658;29;20044;-74
2022/04/25 06:17:03;;;;;;;0.00;0.00;;;;;;;27.76;31.52;98210.94;4859696;29;20048;-74
2022/04/25 06:19:29;;;;;;;0.08;0.08;;;;;;;27.58;31.30;98207.66;4860020;29;20472;-74
2022/04/25 06:21:54;;;;;;;0.35;0.35;;;;;;;27.47;31.74;98210.53;4860001;29;20034;-74
2022/04/25 06:24:20;;;;;;;0.20;0.20;;;;;;;27.36;31.97;98226.31;4859949;29;20025;-74
2022/04/25 06:26:49;;;;;;;0.00;0.00;;;;;;;27.24;31.97;98222.13;4859579;29;20493;-74
2022/04/25 06:29:17;;;;;;;0.00;0.00;;;;;;;27.16;32.26;98224.94;4859829;29;20056;-74
2022/04/25 06:31:43;;;;;;;0.00;0.00;;;;;;;26.89;32.37;98224.03;4859377;29;20025;-74
2022/04/25 06:34:08;;;;;;;0.00;0.00;;;;;;;26.73;32.80;98227.28;4859552;29;20478;-73
2022/04/25 06:36:36;;;;;;;0.00;0.00;;;;;;;26.63;32.97;98224.22;4859743;29;20029;-73
2022/04/25 06:39:02;;;;;;;0.00;0.00;;;;;;;26.60;33.37;98227.00;4859525;29;20025;-73
2022/04/25 06:41:28;;;;;;;0.00;0.00;;;;;;;26.55;34.15;98227.44;4859684;29;20030;-73
2022/04/25 06:43:54;;;;;;;10.02;1.00;;;;;;;26.47;33.99;98237.69;4859296;29;20037;-73
2022/04/25 06:46:19;;;;;;;0.00;0.00;;;;;;;26.27;34.40;98245.63;4859601;29;20034;-73
2022/04/25 06:49:19;;;;;;;0.00;0.00;;;;;;;26.25;35.64;98258.97;4859229;29;20030;-73
2022/04/25 06:51:30;;;;;;;0.00;0.00;;;;;;;26.20;35.35;98265.66;4859052;29;20060;-73
2022/04/25 06:53:56;;;;;;;0.00;0.00;;;;;;;26.14;35.41;98270.00;4859084;29;20029;-73
2022/04/25 06:56:22;;;;;;;0.00;0.00;;;;;;;26.12;36.13;98273.16;4858940;29;20049;-73
2022/04/25 06:58:47;;;;;;;0.00;0.00;;;;;;;26.09;36.10;98273.94;4858855;29;20443;-73
2022/04/25 07:01:13;;;;;;;0.00;0.00;;;;;;;25.89;37.05;98271.66;4859252;29;20033;-73
2022/04/25 07:03:38;;;;;;;0.10;0.10;;;;;;;25.65;37.43;98286.22;4859435;29;20032;-73
2022/04/25 07:06:04;;;;;;;0.05;0.05;;;;;;;25.42;37.68;98281.97;4858978;29;20560;-73
2022/04/25 07:08:29;;;;;;;0.00;0.00;;;;;;;25.28;38.36;98277.31;4859758;29;20085;-74
2022/04/25 07:10:54;;;;;;;0.20;0.20;;;;;;;25.19;38.73;98285.91;4859474;29;20034;-75
2022/04/25 07:13:20;;;;;;;0.00;0.00;;;;;;;25.16;37.65;98285.91;4859706;29;20025;-75
2022/04/25 07:15:45;;;;;;;0.00;0.00;;;;;;;25.09;37.65;98284.72;4859454;29;20475;-75
2022/04/25 07:18:13;;;;;;;0.00;0.00;;;;;;;25.09;38.11;98282.00;4859428;29;20032;-75
2022/04/25 07:20:38;;;;;;;0.00;0.00;;;;;;;24.98;38.19;98286.72;4859456;29;20140;-75
2022/04/25 07:28:51;;;;;;;0.10;0.10;;;;;;;24.72;38.56;98291.41;4858700;29;20413;-75
2022/04/25 07:31:17;;;;;;;0.00;0.00;;;;;;;24.54;39.72;98274.16;4859469;29;20041;-75
2022/04/25 07:33:45;;;;;;;0.10;0.10;;;;;;;24.50;39.84;98278.84;4859375;29;20034;-75
2022/04/25 07:36:12;;;;;;;0.08;0.08;;;;;;;24.39;39.58;98271.41;4859012;29;20025;-75
2022/04/25 07:38:39;;;;;;;0.22;0.22;;;;;;;24.41;39.84;98263.63;4859003;29;20033;-72
2022/04/25 07:41:05;;;;;;;0.13;0.13;;;;;;;24.51;38.95;98261.28;4858998;29;20462;-74
2022/04/25 07:43:30;;;;;;;0.10;0.10;;;;;;;24.55;37.90;98257.38;4859177;29;20051;-75
2022/04/25 07:45:56;;;;;;;0.00;0.00;;;;;;;24.62;38.09;98262.09;4857558;29;20467;-75
2022/04/25 07:48:21;;;;;;;0.20;0.20;;;;;;;24.74;36.32;98271.84;4859031;29;20471;-75
2022/04/25 07:50:47;;;;;;;0.28;0.28;;;;;;;24.78;37.57;98272.66;4858577;29;20113;-75
2022/04/25 07:53:13;;;;;;;0.00;0.00;;;;;;;24.74;37.66;98275.41;4859168;29;20033;-74
2022/04/25 07:55:39;;;;;;;0.10;0.10;;;;;;;24.69;37.30;98259.34;4859059;29;20029;-74
2022/04/25 07:58:06;;;;;;;0.00;0.00;;;;;;;24.64;37.73;98262.44;4858787;29;20459;-73
2022/04/25 08:00:32;;;;;;;0.00;0.00;;;;;;;24.48;38.02;98260.09;4858959;29;20021;-74
2022/04/25 08:02:57;;;;;;;0.20;0.20;;;;;;;24.51;38.22;98261.28;4858764;29;20425;-75
2022/04/25 08:05:23;;;;;;;0.05;0.05;;;;;;;24.48;38.10;98260.09;4858953;29;20068;-75
2022/04/25 08:07:48;;;;;;;0.00;0.00;;;;;;;24.57;38.97;98263.25;4858771;29;20467;-74
2022/04/25 08:10:13;;;;;;;0.00;0.00;;;;;;;24.63;38.36;98260.88;4858522;29;20394;-74
2022/04/25 08:18:07;;;;;;;0.00;0.00;;;;;;;24.90;39.57;98252.31;4858369;29;20097;-75
2022/04/25 08:20:35;;;;;;;0.10;0.10;;;;;;;25.00;38.81;98246.06;4857453;29;20026;-75
2022/04/25 08:23:02;;;;;;;0.03;0.03;;;;;;;24.92;38.44;98241.78;4858739;29;20159;-74
2022/04/25 08:25:30;;;;;;;0.30;0.30;;;;;;;24.81;38.66;98232.81;4842119;29;20496;-74
2022/04/25 08:27:56;;;;;;;0.10;0.10;;;;;;;24.58;40.47;98237.47;4858109;29;20033;-75
2022/04/25 08:30:21;;;;;;;0.45;0.20;;;;;;;24.45;40.26;98242.53;4858469;29;20105;-75
2022/04/25 08:32:47;;;;;;;0.00;0.00;;;;;;;24.26;41.60;98227.28;4858717;29;20033;-75
2022/04/25 08:35:14;;;;;;;0.10;0.10;;;;;;;24.13;41.03;98232.34;4858441;29;20025;-75
2022/04/25 08:37:40;;;;;;;0.10;0.10;;;;;;;23.96;41.37;98233.06;4858603;29;20033;-75
2022/04/25 08:40:05;;;;;;;0.10;0.10;;;;;;;23.88;41.93;98240.44;4858677;29;20057;-75
2022/04/25 08:42:31;;;;;;;0.38;0.38;;;;;;;23.74;41.84;98238.44;4861756;29;20065;-75
2022/04/25 08:44:59;;;;;;;0.10;0.10;;;;;;;23.60;42.21;98236.41;4860814;29;20064;-75
2022/04/25 08:47:33;;;;;;;0.25;0.25;;;;;;;23.60;43.51;98230.97;4862056;29;20033;-75
2022/04/25 08:49:59;;;;;;;0.28;0.28;;;;;;;23.59;43.06;98229.41;4861807;29;20097;-75
2022/04/25 08:52:29;;;;;;;0.20;0.20;;;;;;;23.68;43.29;98226.34;4861823;29;20121;-75
2022/04/25 08:54:58;;;;;;;0.10;0.10;;;;;;;23.77;43.59;98229.47;4861843;29;20080;-74
2022/04/25 08:57:27;;;;;;;0.08;0.08;;;;;;;23.90;42.52;98208.06;4862030;29;20036;-74
2022/04/25 08:59:55;;;;;;;0.00;0.00;;;;;;;24.06;42.25;98212.41;4861516;29;20036;-74
2022/04/25 09:02:22;;;;;;;0.10;0.10;;;;;;;24.21;41.61;98210.50;4861929;29;20494;-74
2022/04/25 09:04:50;;;;;;;0.00;0.00;;;;;;;24.30;40.67;98206.22;4861953;29;20623;-74
2022/04/25 09:07:16;;;;;;;0.03;0.03;;;;;;;24.44;39.52;98204.66;4861560;29;20078;-74
2022/04/25 09:09:42;;;;;;;0.00;0.00;;;;;;;24.48;39.51;98197.25;4862024;29;20097;-74
2022/04/25 09:12:09;;;;;;;0.00;0.00;;;;;;;24.63;39.57;98203.47;4861188;29;20112;-74
2022/04/25 09:14:36;;;;;;;0.00;0.00;;;;;;;24.64;38.88;98196.84;4861879;29;20501;-74
2022/04/25 09:17:03;;;;;;;0.00;0.00;;;;;;;24.68;39.36;98197.66;4861525;29;20494;-75
2022/04/25 09:19:30;;;;;;;0.05;0.05;;;;;;;24.67;39.90;98195.31;4861674;29;20046;-75
2022/04/25 09:21:55;;;;;;;0.10;0.10;;;;;;;24.72;40.15;98192.97;4861243;29;20032;-75
2022/04/25 09:24:34;;;;;;;0.38;0.38;;;;;;;24.69;39.58;98191.00;4861137;29;20108;-75
2022/04/25 09:27:11;;;;;;;0.00;0.00;;;;;;;24.65;39.14;98192.94;4861267;29;20038;-75
2022/04/25 09:29:39;;;;;;;0.00;0.00;;;;;;;24.60;39.44;98176.94;4861189;29;20406;-75
2022/04/25 09:32:06;;;;;;;6.57;1.27;;;;;;;24.56;39.26;98171.47;4861209;29;20124;-75
2022/04/25 09:37:18;;;;;;;0.00;0.00;;;;;;;24.37;39.33;98158.22;4861180;29;20291;-74
2022/04/25 09:39:44;;;;;;;0.00;0.00;;;;;;;24.32;39.12;98162.09;4861322;29;20036;-74
2022/04/25 09:42:10;;;;;;;0.00;0.00;;;;;;;24.29;39.34;98157.41;4860958;29;20045;-74
2022/04/25 09:44:56;;;;;;;0.63;0.63;;;;;;;24.39;39.40;98153.13;4860908;29;20040;-74
2022/04/25 09:47:30;;;;;;;0.00;0.00;;;;;;;24.45;39.31;98146.88;4861196;29;20033;-74
2022/04/25 09:50:10;;;;;;;0.00;0.00;;;;;;;24.55;39.47;98147.28;4860979;29;20554;-74
2022/04/25 09:52:51;;;;;;;0.28;0.28;;;;;;;24.49;39.33;98155.09;4856343;29;20049;-74
2022/04/25 09:55:17;;;;;;;0.00;0.00;;;;;;;24.51;39.35;98143.75;4861029;29;20076;-74
2022/04/25 09:57:48;;;;;;;0.00;0.00;;;;;;;24.54;41.39;98148.44;4860977;29;20470;-74
2022/04/25 10:00:38;;;;;;;0.65;0.65;;;;;;;24.55;39.04;98139.09;4860709;29;20490;-74
2022/04/25 10:03:08;;;;;;;0.00;0.00;;;;;;;24.54;39.02;98143.75;4860762;29;20498;-74
2022/04/25 10:05:39;;;;;;;0.00;0.00;;;;;;;24.64;38.70;98144.91;4860782;29;20022;-75
2022/04/25 10:08:06;;;;;;;0.00;0.00;;;;;;;24.71;37.61;98146.91;4860570;29;20068;-74
2022/04/25 10:10:32;;;;;;;0.08;0.08;;;;;;;24.84;38.43;98141.78;4861121;29;20036;-74
2022/04/25 10:13:00;;;;;;;0.10;0.10;;;;;;;24.89;38.05;98141.38;4860593;29;20041;-74
2022/04/25 10:15:25;;;;;;;0.15;0.15;;;;;;;24.93;37.64;98140.19;4861002;29;20061;-75
2022/04/25 10:17:53;;;;;;;0.15;0.15;;;;;;;24.93;37.25;98139.44;4860724;29;20485;-75
2022/04/25 10:20:18;;;;;;;0.68;0.30;;;;;;;24.89;36.37;98141.38;4860172;29;20465;-74
2022/04/25 10:22:44;;;;;;;0.00;0.00;;;;;;;24.93;37.03;98136.69;4860571;29;20117;-75
2022/04/25 10:25:10;;;;;;;0.00;0.00;;;;;;;24.97;36.52;98131.97;4858919;29;20033;-75
2022/04/25 10:27:40;;;;;;;0.10;0.10;;;;;;;25.01;36.75;98121.81;4860510;29;20029;-75
2022/04/25 10:30:12;;;;;;;0.00;0.00;;;;;;;25.05;36.21;98125.31;4860283;29;20084;-74
2022/04/25 10:32:37;;;;;;;0.20;0.20;;;;;;;25.02;36.23;98117.13;4860673;29;20143;-74
2022/04/25 10:35:04;;;;;;;0.00;0.00;;;;;;;25.09;36.25;98114.38;4860039;29;20034;-75
2022/04/25 10:37:40;;;;;;;0.10;0.10;;;;;;;25.16;37.20;98113.53;4860295;29;20045;-75
2022/04/25 10:40:08;;;;;;;0.00;0.00;;;;;;;25.24;37.11;98112.34;4860116;29;20030;-74
2022/04/25 10:46:13;;;;;;;0.00;0.00;;;;;;;25.51;36.67;98107.19;4802841;29;20527;-75
2022/04/25 10:49:04;;;;;;;0.00;0.00;;;;;;;25.68;35.83;98104.72;4802827;29;20091;-75
2022/04/25 10:51:39;;;;;;;0.00;0.00;;;;;;;25.87;34.68;98097.94;4846672;29;20053;-75
2022/04/25 10:54:06;;;;;;;0.00;0.00;;;;;;;26.05;34.58;98095.84;4859783;29;20052;-75
2022/04/25 10:56:32;;;;;;;0.00;0.00;;;;;;;26.02;34.57;98098.63;4860010;29;20066;-74
2022/04/25 10:59:24;;;;;;;0.08;0.08;;;;;;;26.15;34.31;98107.16;4859897;29;20039;-74
2022/04/25 11:01:51;;;;;;;0.00;0.00;;;;;;;26.24;34.54;98101.22;4860024;29;20054;-74
2022/04/25 11:04:18;;;;;;;0.00;0.00;;;;;;;26.21;34.21;98092.63;4858899;29;20476;-74
2022/04/25 11:06:43;;;;;;;0.00;0.00;;;;;;;26.18;34.27;98087.16;4843136;29;20025;-74
2022/04/25 11:09:09;;;;;;;0.13;0.13;;;;;;;26.24;34.09;98080.06;4859337;29;20153;-74
2022/04/25 11:11:49;;;;;;;0.00;0.00;;;;;;;26.26;34.86;98085.94;4859627;29;20025;-74
2022/04/25 11:14:15;;;;;;;0.20;0.20;;;;;;;26.35;34.76;98078.03;4859376;29;20029;-74
2022/04/25 11:16:41;;;;;;;0.00;0.00;;;;;;;26.31;33.36;98082.75;4859592;29;20046;-74
2022/04/25 11:19:11;;;;;;;0.10;0.10;;;;;;;26.37;33.97;98070.16;4842818;29;20055;-75
2022/04/25 11:21:43;;;;;;;0.20;0.10;;;;;;;26.39;34.25;98078.00;4859496;29;20062;-74
2022/04/25 11:24:28;;;;;;;0.15;0.15;;;;;;;26.46;33.27;98077.88;4859184;29;20116;-76
2022/04/25 11:26:56;;;;;;;0.00;0.00;;;;;;;26.44;33.39;98074.00;4859382;29;20037;-74
2022/04/25 11:29:21;;;;;;;0.55;0.55;;;;;;;26.51;32.99;98068.44;4859161;29;20025;-74
2022/04/25 11:31:47;;;;;;;0.20;0.20;;;;;;;26.56;32.89;98070.75;4859340;29;20045;-75
2022/04/25 11:34:13;;;;;;;0.08;0.08;;;;;;;26.28;33.41;98064.38;4858999;29;20098;-75
2022/04/25 11:36:43;;;;;;;0.00;0.00;;;;;;;26.40;33.63;98059.56;4859237;29;20123;-76
2022/04/25 11:39:58;;;;;;;0.00;0.00;;;;;;;26.48;33.37;98064.56;4859142;29;20069;-76
2022/04/25 11:41:58;;;;;;;0.45;0.45;;;;;;;26.53;32.93;98071.56;4851768;29;20423;-76
2022/04/25 11:44:24;;;;;;;0.13;0.13;;;;;;;26.51;33.22;98066.50;4858932;29;20064;-75
2022/04/25 11:46:51;;;;;;;0.00;0.00;;;;;;;26.55;33.08;98060.19;4859107;29;20491;-75
2022/04/25 11:49:31;;;;;;;0.00;0.00;;;;;;;26.64;33.07;98049.53;4857662;29;20178;-74
2022/04/25 11:51:58;;;;;;;0.10;0.10;;;;;;;26.67;33.28;98051.44;4858558;29;20061;-75
2022/04/25 11:54:24;;;;;;;0.10;0.10;;;;;;;26.71;33.03;98049.44;4858766;29;20082;-75
2022/04/25 11:56:50;;;;;;;0.57;0.57;;;;;;;26.72;33.93;98042.00;4858654;29;20049;-75
2022/04/25 11:59:17;;;;;;;0.15;0.15;;;;;;;26.63;32.67;98056.19;4858649;29;20036;-75
2022/04/25 12:01:48;;;;;;;0.10;0.10;;;;;;;26.73;33.01;98049.03;4858875;29;20505;-75